Time;durP1;ratioP1;P1;durP2;ratioP2;P2;SDS_P1;SDS_P2;PMS_P1;PMS_P2;Temp;Humidity;BMP_temperature;BMP_pressure;BME280_temperature;BME280_humidity;BME280_pressure;Samples;Min_cycle;Max_cycle;Signal;HPM_P1;HPM_P2
2022/10/03 00:00:21;;;;;;;;;;;16.10;69.00;;;12.01;100.00;96257.72;5019038;28;19916;-53
2022/10/03 00:03:01;;;;;;;;;;;16.10;68.90;;;12.04;100.00;96264.41;5030107;28;19913;-49
2022/10/03 00:05:55;;;;;;;;;;;16.10;69.00;;;12.04;100.00;96265.22;5031053;28;20003;-56
2022/10/03 00:09:00;;;;;;;;;;;16.20;69.00;;;12.09;100.00;96269.78;5016339;28;20256;-53
2022/10/03 00:12:15;;;;;;;;;;;16.20;69.00;;;12.09;100.00;96267.09;4994154;28;19909;-51
2022/10/03 00:14:55;;;;;;;;;;;16.20;68.90;;;12.10;100.00;96283.94;5042742;28;19912;-50
2022/10/03 00:18:12;;;;;;;;;;;16.20;69.00;;;12.11;100.00;96282.88;5037711;28;19973;-52
2022/10/03 00:21:16;;;;;;;;;;;16.20;69.00;;;12.12;100.00;96281.81;5028355;28;20011;-50
2022/10/03 00:23:51;;;;;;;;;;;16.30;69.00;;;12.12;100.00;96279.94;5032004;28;19938;-49
2022/10/03 00:26:46;;;;;;;;;;;16.30;69.00;;;12.12;100.00;96277.28;5045542;28;19908;-53
2022/10/03 00:29:32;;;;;;;;;;;16.30;68.90;;;12.15;100.00;96289.31;5034093;28;20340;-49
2022/10/03 00:32:42;;;;;;;;;;;16.40;69.00;;;12.12;100.00;96285.28;5027479;28;19912;-50
2022/10/03 00:35:26;;;;;;;;;;;16.40;69.00;;;12.14;100.00;96288.50;5050398;28;20007;-56
2022/10/03 00:38:21;;;;;;;;;;;16.40;68.90;;;12.16;100.00;96289.06;5031604;28;19982;-50
2022/10/03 00:41:43;;;;;;;;;;;16.40;68.90;;;12.19;100.00;96296.56;5049746;28;19909;-50
2022/10/03 00:44:58;;;;;;;;;;;16.40;68.90;;;12.21;100.00;96298.97;5029702;28;19912;-54
2022/10/03 00:48:13;;;;;;;;;;;16.40;69.00;;;12.22;100.00;96297.91;5047287;28;19912;-49
2022/10/03 00:51:11;;;;;;;;;;;16.40;69.00;;;12.24;100.00;96309.13;5045430;28;19915;-57
2022/10/03 00:54:18;;;;;;;;;;;16.40;69.10;;;12.22;100.00;96308.56;5002198;28;19913;-51
2022/10/03 00:57:53;;;;;;;;;;;16.40;69.10;;;12.18;100.00;96304.81;5050658;28;20378;-53
2022/10/03 01:00:33;;;;;;;;;;;16.40;69.20;;;12.15;100.00;96308.81;5009615;28;19909;-56
2022/10/03 01:03:59;;;;;;;;;;;16.40;69.20;;;12.10;100.00;96306.13;5032598;28;19912;-55
2022/10/03 01:06:57;;;;;;;;;;;16.40;69.20;;;12.08;100.00;96312.78;5027375;28;19916;-49
2022/10/03 01:09:57;;;;;;;;;;;16.30;69.20;;;12.06;100.00;96310.34;5014461;28;19908;-51
2022/10/03 01:13:07;;;;;;;;;;;16.30;69.20;;;12.09;100.00;96311.69;5026968;28;19912;-52
2022/10/03 01:16:30;;;;;;;;;;;16.30;69.30;;;12.07;100.00;96305.81;5024882;28;20355;-51
2022/10/03 01:19:50;;;;;;;;;;;16.30;69.40;;;12.04;100.00;96301.78;5037868;28;19912;-48
2022/10/03 01:22:41;;;;;;;;;;;16.20;69.30;;;12.03;100.00;96298.31;5050053;28;19962;-50
2022/10/03 01:25:38;;;;;;;;;;;16.20;69.40;;;12.02;100.00;96312.72;5037011;28;19934;-53
2022/10/03 01:32:00;;;;;;;;;;;16.20;69.50;;;11.99;100.00;96317.78;5048080;28;20346;-48
2022/10/03 01:35:18;;;;;;;;;;;16.20;69.60;;;11.99;100.00;96309.75;5049710;28;19912;-49
2022/10/03 01:38:19;;;;;;;;;;;16.20;69.60;;;11.98;100.00;96308.16;5035930;28;19948;-52
2022/10/03 01:41:02;;;;;;;;;;;16.20;69.60;;;11.95;100.00;96311.34;5033128;28;19955;-48
2022/10/03 01:43:43;;;;;;;;;;;16.20;69.60;;;11.95;100.00;96311.34;5032867;28;19913;-51
2022/10/03 01:46:43;;;;;;;;;;;16.20;69.60;;;11.94;100.00;96323.06;5048384;28;19916;-51
2022/10/03 01:49:55;;;;;;;;;;;16.20;69.60;;;11.88;100.00;96322.22;5035776;28;19913;-48
2022/10/03 01:53:15;;;;;;;;;;;16.20;69.70;;;11.92;100.00;96335.88;5012792;28;19912;-51
2022/10/03 01:56:18;;;;;;;;;;;16.20;69.70;;;11.92;100.00;96330.53;5046795;28;19912;-48
2022/10/03 01:58:55;;;;;;;;;;;16.20;69.70;;;11.90;100.00;96333.44;5048674;28;19912;-49
2022/10/03 02:01:45;;;;;;;;;;;16.20;69.80;;;11.91;100.00;96336.91;5042597;28;19909;-52
2022/10/03 02:04:48;;;;;;;;;;;16.10;69.70;;;11.89;100.00;96341.72;5021263;28;20287;-50
2022/10/03 02:07:28;;;;;;;;;;;16.20;69.70;;;11.90;100.00;96340.66;5037145;28;20629;-48
2022/10/03 02:10:27;;;;;;;;;;;16.20;69.80;;;11.89;100.00;96337.19;5048568;28;19924;-51
2022/10/03 02:16:43;;;;;;;;;;;16.20;69.70;;;11.89;100.00;96342.53;5033855;28;20349;-48
2022/10/03 02:19:47;;;;;;;;;;;16.20;69.70;;;11.89;100.00;96349.72;5039559;28;19909;-51
2022/10/03 02:22:42;;;;;;;;;;;16.20;69.70;;;11.86;100.00;96348.38;5032352;28;19965;-53
2022/10/03 02:25:22;;;;;;;;;;;16.20;69.70;;;11.88;100.00;96350.78;5022973;28;19985;-50
2022/10/03 02:28:48;;;;;;;;;;;16.20;69.80;;;11.87;100.00;96357.97;5050504;28;19941;-48
2022/10/03 02:31:55;;;;;;;;;;;16.20;69.80;;;11.89;100.00;96357.75;4996875;28;20367;-50
2022/10/03 02:34:52;;;;;;;;;;;16.20;69.80;;;11.88;100.00;96362.28;5049724;28;19957;-50
2022/10/03 02:37:24;;;;;;;;;;;16.20;69.80;;;11.86;100.00;96361.72;5030999;28;19962;-50
2022/10/03 02:40:43;;;;;;;;;;;16.20;69.80;;;11.86;100.00;96356.38;5006910;28;19909;-53
2022/10/03 02:43:52;;;;;;;;;;;16.20;69.80;;;11.83;100.00;96356.84;5025504;28;19955;-54
2022/10/03 02:47:14;;;;;;;;;;;16.20;69.80;;;11.80;100.00;96354.69;5039222;28;19958;-49
2022/10/03 02:50:18;;;;;;;;;;;16.10;69.70;;;11.78;100.00;96349.63;5039833;28;20416;-48
2022/10/03 02:53:24;;;;;;;;;;;16.10;69.80;;;11.73;100.00;96352.22;5051285;28;19951;-50
2022/10/03 02:56:30;;;;;;;;;;;16.00;69.80;;;11.71;100.00;96351.66;5049390;28;20287;-55
2022/10/03 02:59:36;;;;;;;;;;;16.00;70.00;;;11.71;100.00;96353.53;5052019;28;19909;-54
2022/10/03 03:02:53;;;;;;;;;;;16.00;70.00;;;11.67;100.00;96349.75;5048185;28;19912;-50
2022/10/03 03:05:50;;;;;;;;;;;15.90;70.00;;;11.67;100.00;96355.91;5051590;28;19908;-49
2022/10/03 03:08:59;;;;;;;;;;;16.00;70.10;;;11.64;100.00;96359.06;5045537;28;20010;-47
2022/10/03 03:11:48;;;;;;;;;;;15.90;70.10;;;11.61;100.00;96361.44;5049008;28;20402;-48
2022/10/03 03:14:56;;;;;;;;;;;15.90;70.10;;;11.58;100.00;96371.56;4966505;28;24408;-50
2022/10/03 03:17:51;;;;;;;;;;;15.90;70.10;;;11.58;100.00;96368.88;5027712;28;19947;-48
2022/10/03 03:20:54;;;;;;;;;;;15.90;70.20;;;11.56;100.00;96365.69;5036191;28;19934;-52
2022/10/03 03:23:49;;;;;;;;;;;15.90;70.20;;;11.55;100.00;96358.72;5050229;28;20291;-52
2022/10/03 03:27:09;;;;;;;;;;;15.90;70.20;;;11.53;100.00;96362.69;5042573;28;19909;-48
2022/10/03 03:30:17;;;;;;;;;;;15.90;70.20;;;11.50;100.00;96363.19;5024631;28;20377;-53
2022/10/03 03:33:15;;;;;;;;;;;15.80;70.10;;;11.50;100.00;96364.03;5035757;28;20003;-49
2022/10/03 03:35:56;;;;;;;;;;;15.80;70.20;;;11.47;100.00;96369.03;5025981;28;20534;-48
2022/10/03 03:39:01;;;;;;;;;;;15.80;70.30;;;11.46;100.00;96365.56;5031544;28;19912;-48
2022/10/03 03:41:52;;;;;;;;;;;15.80;70.30;;;11.47;100.00;96361.03;5015590;28;19908;-47
2022/10/03 03:44:20;;;;;;;;;;;15.80;70.40;;;11.47;100.00;96375.19;5046310;28;19920;-53
2022/10/03 03:47:17;;;;;;;;;;;15.80;70.40;;;11.49;100.00;96364.25;5037079;28;19908;-48
2022/10/03 03:49:57;;;;;;;;;;;15.90;70.40;;;11.47;100.00;96369.84;5048259;28;20577;-48
2022/10/03 03:53:03;;;;;;;;;;;15.90;70.40;;;11.46;100.00;96370.88;5052259;28;20410;-52
2022/10/03 03:56:13;;;;;;;;;;;15.90;70.40;;;11.47;100.00;96363.69;5044875;28;20379;-48
2022/10/03 03:59:03;;;;;;;;;;;15.80;70.30;;;11.47;100.00;96363.69;5034347;28;19908;-47
2022/10/03 04:02:25;;;;;;;;;;;15.90;70.40;;;11.44;100.00;96359.69;5048634;28;20290;-50
2022/10/03 04:05:17;;;;;;;;;;;15.90;70.40;;;11.43;100.00;96367.91;5041184;28;19947;-51
2022/10/03 04:08:24;;;;;;;;;;;15.80;70.40;;;11.41;100.00;96365.53;5048452;28;19916;-48
2022/10/03 04:11:56;;;;;;;;;;;15.80;70.50;;;11.44;100.00;96362.34;5001461;28;19961;-57
2022/10/03 04:15:21;;;;;;;;;;;15.80;70.50;;;11.46;100.00;96354.88;4997462;28;19908;-49
2022/10/03 04:19:06;;;;;;;;;;;15.80;70.60;;;11.43;100.00;96346.59;5025323;28;19909;-47
2022/10/03 04:22:05;;;;;;;;;;;15.70;70.60;;;11.39;100.00;96348.16;4997178;28;19913;-52
2022/10/03 04:25:40;;;;;;;;;;;15.70;70.70;;;11.40;100.00;96339.88;5024997;28;19952;-47
2022/10/03 04:28:53;;;;;;;;;;;15.70;70.60;;;11.39;100.00;96337.47;5020986;28;19916;-52
2022/10/03 04:31:43;;;;;;;;;;;15.70;70.70;;;11.39;100.00;96338.28;4969210;28;19999;-49
2022/10/03 04:34:41;;;;;;;;;;;15.70;70.70;;;11.32;100.00;96335.81;5050436;28;19909;-47
2022/10/03 04:37:24;;;;;;;;;;;15.70;70.80;;;11.28;100.00;96329.38;5009092;28;19922;-50
2022/10/03 04:40:26;;;;;;;;;;;15.70;71.50;;;11.22;100.00;96335.72;5051044;28;19974;-55
2022/10/03 04:43:09;;;;;;;;;;;15.70;70.80;;;11.15;100.00;96335.06;5036053;28;19963;-51
2022/10/03 04:46:00;;;;;;;;;;;15.60;70.70;;;11.15;100.00;96336.94;5011888;28;19917;-50
2022/10/03 04:48:57;;;;;;;;;;;15.60;70.70;;;11.14;100.00;96344.13;4996287;28;20322;-48
2022/10/03 04:51:52;;;;;;;;;;;15.50;70.70;;;11.12;100.00;96340.91;5010462;28;20368;-47
2022/10/03 04:54:33;;;;;;;;;;;15.50;70.70;;;11.13;100.00;96341.72;5017944;28;19908;-48
2022/10/03 04:57:43;;;;;;;;;;;15.50;70.80;;;11.08;100.00;96342.47;5013228;28;20294;-50
2022/10/03 05:00:58;;;;;;;;;;;15.50;70.90;;;10.97;100.00;96340.72;5034805;28;20371;-50
2022/10/03 05:03:42;;;;;;;;;;;15.40;70.80;;;10.95;100.00;96340.97;5018881;28;19982;-47
2022/10/03 05:06:23;;;;;;;;;;;15.40;70.80;;;10.97;100.00;96343.38;5012726;28;20402;-48
2022/10/03 05:09:32;;;;;;;;;;;15.40;70.90;;;10.96;100.00;96341.78;5017830;28;20027;-48
2022/10/03 05:12:14;;;;;;;;;;;15.30;70.80;;;10.94;100.00;96349.25;5012562;28;19908;-52
2022/10/03 05:15:17;;;;;;;;;;;15.30;70.90;;;10.91;100.00;96355.88;5001963;28;19913;-47
2022/10/03 05:18:21;;;;;;;;;;;15.30;70.90;;;10.88;100.00;96345.69;5022937;28;19908;-48
2022/10/03 05:21:33;;;;;;;;;;;15.30;70.90;;;10.85;100.00;96348.88;5030824;28;19919;-48
2022/10/03 05:24:38;;;;;;;;;;;15.20;70.90;;;10.88;100.00;96354.50;5023966;28;20392;-47
2022/10/03 05:27:35;;;;;;;;;;;15.20;70.90;;;10.89;100.00;96357.97;5011161;28;20291;-49
2022/10/03 05:30:54;;;;;;;;;;;15.20;71.00;;;10.87;100.00;96366.22;5013766;28;20458;-49
2022/10/03 05:34:00;;;;;;;;;;;15.20;71.00;;;10.86;100.00;96366.44;4992543;28;19909;-53
2022/10/03 05:36:59;;;;;;;;;;;15.20;71.00;;;10.84;100.00;96372.03;5024805;28;20015;-48
2022/10/03 05:39:54;;;;;;;;;;;15.20;71.00;;;10.83;100.00;96375.75;5029197;28;20512;-48
2022/10/03 05:42:46;;;;;;;;;;;15.20;71.00;;;10.81;100.00;96377.03;5007689;28;19962;-55
2022/10/03 05:45:34;;;;;;;;;;;15.20;70.90;;;10.77;100.00;96367.94;5028877;28;19935;-50
2022/10/03 05:48:48;;;;;;;;;;;15.20;70.90;;;10.76;100.00;96377.00;5025928;28;19909;-53
2022/10/03 05:51:48;;;;;;;;;;;15.20;70.90;;;10.76;100.00;96379.66;5012925;28;19935;-54
2022/10/03 05:55:17;;;;;;;;;;;15.20;70.90;;;10.78;100.00;96385.53;5023963;28;20378;-58
2022/10/03 05:58:41;;;;;;;;;;;15.20;70.90;;;10.74;100.00;96384.41;5020067;28;19916;-48
2022/10/03 06:01:59;;;;;;;;;;;15.20;70.90;;;10.77;100.00;96392.72;5027589;28;19913;-52
2022/10/03 06:04:52;;;;;;;;;;;15.20;70.80;;;10.77;100.00;96390.06;5029519;28;19916;-50
2022/10/03 06:07:48;;;;;;;;;;;15.20;70.80;;;10.79;100.00;96395.94;5015053;28;19913;-47
2022/10/03 06:11:00;;;;;;;;;;;15.30;70.80;;;10.83;100.00;96401.59;5012384;28;19913;-48
2022/10/03 06:14:10;;;;;;;;;;;15.30;70.80;;;10.86;100.00;96401.09;5027195;28;20004;-47
2022/10/03 06:17:02;;;;;;;;;;;15.30;70.80;;;10.87;100.00;96400.88;5025336;28;20330;-49
2022/10/03 06:19:58;;;;;;;;;;;15.40;70.80;;;10.92;100.00;96399.31;4995278;28;19908;-52
2022/10/03 06:23:03;;;;;;;;;;;15.50;70.70;;;10.97;100.00;96404.69;5034169;28;20003;-49
2022/10/03 06:25:56;;;;;;;;;;;15.50;70.60;;;11.03;100.00;96403.72;5028979;28;20321;-53
2022/10/03 06:28:53;;;;;;;;;;;15.60;70.60;;;11.09;100.00;96410.72;5033970;28;19913;-51
2022/10/03 06:31:59;;;;;;;;;;;15.60;70.50;;;11.17;100.00;96414.84;5026538;28;19915;-49
2022/10/03 06:35:08;;;;;;;;;;;15.70;70.50;;;11.23;100.00;96427.19;5025116;28;20437;-55
2022/10/03 06:38:14;;;;;;;;;;;15.80;70.40;;;11.13;100.00;96425.19;5014814;28;19920;-49
2022/10/03 06:41:16;;;;;;;;;;;15.80;70.30;;;11.16;100.00;96426.56;5024658;28;20431;-54
2022/10/03 06:44:44;;;;;;;;;;;15.90;70.20;;;11.16;100.00;96430.03;5025105;28;20694;-48
2022/10/03 06:48:13;;;;;;;;;;;15.90;70.10;;;11.21;99.80;96440.75;5021757;28;20295;-47
2022/10/03 06:50:52;;;;;;;;;;;16.00;70.10;;;11.23;99.46;96433.31;5032456;28;20015;-48
2022/10/03 06:53:30;;;;;;;;;;;16.00;70.00;;;11.27;99.54;96439.75;5015688;28;19958;-55
2022/10/03 06:56:37;;;;;;;;;;;16.10;70.30;;;11.26;98.85;96434.69;5028431;28;20389;-48
2022/10/03 06:59:09;;;;;;;;;;;16.10;69.80;;;11.34;98.08;96443.06;5019692;28;19909;-53
2022/10/03 07:02:12;;;;;;;;;;;16.20;69.70;;;11.29;97.07;96442.19;5007657;28;19912;-52
2022/10/03 07:05:08;;;;;;;;;;;16.20;69.60;;;11.35;97.09;96444.69;5013657;28;19921;-47
2022/10/03 07:08:17;;;;;;;;;;;16.30;69.50;;;11.34;96.29;96452.91;5012214;28;20031;-50
2022/10/03 07:11:28;;;;;;;;;;;16.30;69.40;;;11.38;96.18;96450.56;5012120;28;19908;-51
2022/10/03 07:14:54;;;;;;;;;;;16.40;69.40;;;11.45;95.84;96451.19;5028385;28;19918;-48
2022/10/03 07:18:16;;;;;;;;;;;16.40;69.30;;;11.41;95.19;96461.56;5023877;28;19948;-52
2022/10/03 07:21:20;;;;;;;;;;;16.50;69.10;;;11.46;94.82;96458.94;5033018;28;19935;-49
2022/10/03 07:24:16;;;;;;;;;;;16.60;69.00;;;11.52;92.55;96451.81;5031948;28;19967;-49
2022/10/03 07:27:00;;;;;;;;;;;16.70;68.90;;;11.46;92.87;96442.91;5032967;28;19956;-53
2022/10/03 07:30:06;;;;;;;;;;;16.80;68.70;;;11.69;93.89;96457.88;5031664;28;19947;-53
2022/10/03 07:32:43;;;;;;;;;;;16.90;68.50;;;11.71;91.82;96469.09;5032972;28;20016;-47
2022/10/03 07:35:21;;;;;;;;;;;17.10;69.20;;;11.80;91.64;96475.59;5032938;28;19932;-47
2022/10/03 07:41:59;;;;;;;;;;;17.20;68.10;;;11.92;90.63;96475.50;5025151;28;19916;-56
2022/10/03 07:44:39;;;;;;;;;;;17.30;67.80;;;11.99;89.74;96475.31;5031238;28;20015;-48
2022/10/03 07:47:44;;;;;;;;;;;17.40;67.60;;;12.04;90.34;96481.50;5032624;28;19913;-50
2022/10/03 07:50:56;;;;;;;;;;;17.50;67.50;;;12.16;89.94;96480.53;5020418;28;20272;-48
2022/10/03 07:54:19;;;;;;;;;;;17.60;67.30;;;11.92;90.49;96480.84;5029995;28;20066;-53
2022/10/03 07:57:20;;;;;;;;;;;17.70;67.00;;;12.19;90.65;96475.53;4990989;28;19909;-49
2022/10/03 08:00:42;;;;;;;;;;;17.80;66.90;;;12.41;90.27;96488.81;5015060;28;19909;-47
2022/10/03 08:04:25;;;;;;;;;;;17.90;66.80;;;12.58;88.46;96486.00;4960995;28;19913;-55
2022/10/03 08:07:35;;;;;;;;;;;18.10;66.70;;;12.63;89.21;96487.91;4970094;28;19937;-53
2022/10/03 08:11:04;;;;;;;;;;;18.20;66.40;;;12.50;89.69;96487.28;4956731;28;20450;-54
2022/10/03 08:14:19;;;;;;;;;;;18.30;66.20;;;12.50;89.02;96489.97;5029745;28;19916;-54
2022/10/03 08:17:31;;;;;;;;;;;18.40;66.00;;;12.38;88.20;96496.50;5031346;28;19917;-54
2022/10/03 08:20:37;;;;;;;;;;;18.50;65.80;;;12.48;87.08;96501.97;5024458;28;19913;-51
2022/10/03 08:23:27;;;;;;;;;;;18.50;65.60;;;12.54;88.44;96500.13;5031954;28;19919;-54
2022/10/03 08:26:21;;;;;;;;;;;18.60;65.50;;;12.66;87.74;96498.06;5024139;28;20070;-50
2022/10/03 08:29:12;;;;;;;;;;;18.60;65.30;;;12.65;85.41;96509.84;5014952;28;20264;-51
2022/10/03 08:32:55;;;;;;;;;;;18.70;65.30;;;12.58;85.81;96495.88;5014902;28;19948;-50
2022/10/03 08:35:43;;;;;;;;;;;18.70;64.90;;;12.58;87.33;96496.69;5011224;28;19913;-58
2022/10/03 08:38:26;;;;;;;;;;;18.70;64.70;;;12.40;87.50;96500.53;5021714;23;19921;-48
2022/10/03 08:41:20;;;;;;;;;;;18.70;64.60;;;12.41;88.36;96493.31;5010983;28;20020;-50
2022/10/03 08:44:39;;;;;;;;;;;18.80;64.40;;;12.62;87.09;96503.13;5011116;28;19921;-51
2022/10/03 08:47:41;;;;;;;;;;;18.80;64.30;;;12.77;86.13;96497.09;4999152;28;20474;-50
2022/10/03 08:51:13;;;;;;;;;;;18.90;64.30;;;12.95;82.88;96501.25;5010325;28;20367;-51
2022/10/03 08:54:23;;;;;;;;;;;19.10;64.30;;;13.15;81.73;96487.19;5009542;28;19916;-54
2022/10/03 08:57:14;;;;;;;;;;;19.30;64.00;;;13.17;80.69;96498.47;5010092;28;20398;-52
2022/10/03 09:00:24;;;;;;;;;;;19.50;63.50;;;13.03;81.05;96503.44;5010346;28;19925;-48
2022/10/03 09:03:39;;;;;;;;;;;19.60;63.00;;;13.46;79.04;96492.75;4979664;28;19963;-55
2022/10/03 09:06:54;;;;;;;;;;;20.00;62.60;;;13.57;78.15;96487.19;5010299;28;19919;-48
2022/10/03 09:10:03;;;;;;;;;;;20.30;62.20;;;13.64;77.27;96487.75;5010103;28;20007;-50
2022/10/03 09:13:21;;;;;;;;;;;20.50;61.80;;;13.70;76.47;96483.22;5008754;28;19909;-50
2022/10/03 09:16:34;;;;;;;;;;;20.50;61.30;;;14.02;76.82;96480.38;5010127;28;20363;-51
2022/10/03 09:19:31;;;;;;;;;;;20.70;61.00;;;14.43;73.43;96476.97;5008603;28;19960;-51
2022/10/03 09:22:56;;;;;;;;;;;21.10;60.70;;;14.62;72.63;96466.53;5011126;28;20314;-54
2022/10/03 09:26:28;;;;;;;;;;;21.40;60.20;;;15.37;72.70;96469.38;4949199;28;19989;-55
2022/10/03 09:29:50;;;;;;;;;;;22.10;59.90;;;15.27;69.29;96467.53;5010514;28;19940;-55
2022/10/03 09:33:12;;;;;;;;;;;22.60;59.40;;;15.65;68.99;96465.25;5009373;28;20268;-49
2022/10/03 09:36:13;;;;;;;;;;;23.00;58.80;;;15.54;68.05;96463.66;5010639;28;19912;-52
2022/10/03 09:39:29;;;;;;;;;;;23.30;58.40;;;16.04;68.18;96467.22;4971791;28;19916;-51
2022/10/03 09:42:41;;;;;;;;;;;23.50;58.10;;;16.30;66.05;96463.31;5023787;28;19913;-56
2022/10/03 09:45:37;;;;;;;;;;;23.80;57.70;;;16.58;64.27;96458.28;5021312;28;20414;-50
2022/10/03 09:48:59;;;;;;;;;;;24.00;57.20;;;16.90;63.08;96457.75;5002324;28;19909;-52
2022/10/03 09:52:21;;;;;;;;;;;24.30;56.80;;;17.06;63.01;96466.47;5019384;28;20319;-52
2022/10/03 09:55:30;;;;;;;;;;;24.30;56.50;;;16.51;63.93;96465.84;5021056;28;19917;-50
2022/10/03 09:58:31;;;;;;;;;;;24.50;56.20;;;16.64;63.51;96459.84;5027529;28;19909;-48
2022/10/03 10:02:05;;;;;;;;;;;24.00;56.20;;;16.29;64.37;96463.56;4982752;28;19936;-52
2022/10/03 10:04:54;;;;;;;;;;;23.50;56.30;;;16.10;65.32;96461.53;4970653;28;19918;-51
2022/10/03 10:07:36;;;;;;;;;;;23.20;56.50;;;16.18;63.73;96454.78;5027179;28;20144;-51
2022/10/03 10:10:58;;;;;;;;;;;23.00;56.60;;;16.40;64.17;96455.16;5034311;28;19932;-48
2022/10/03 10:14:05;;;;;;;;;;;23.30;56.40;;;16.55;63.66;96451.56;5002119;28;20003;-48
2022/10/03 10:17:26;;;;;;;;;;;23.70;56.10;;;16.81;60.14;96452.16;5033548;28;20387;-48
2022/10/03 10:20:31;;;;;;;;;;;24.20;55.60;;;16.91;61.97;96439.72;4996768;28;19915;-52
2022/10/03 10:23:03;;;;;;;;;;;24.70;55.00;;;17.49;59.26;96443.13;5019939;28;20391;-52
2022/10/03 10:25:35;;;;;;;;;;;25.10;54.60;;;18.09;56.22;96444.56;5022319;28;19916;-50
2022/10/03 10:28:10;;;;;;;;;;;25.50;54.30;;;18.56;57.10;96450.84;5032212;28;20004;-50
2022/10/03 10:31:53;;;;;;;;;;;26.00;54.00;;;18.66;53.33;96456.09;4992904;28;19916;-53
2022/10/03 10:34:52;;;;;;;;;;;26.30;53.60;;;18.81;52.87;96452.38;4979453;28;19916;-49
2022/10/03 10:38:15;;;;;;;;;;;26.60;52.70;;;18.91;53.02;96452.97;5021652;28;20398;-53
2022/10/03 10:41:21;;;;;;;;;;;26.90;52.40;;;18.98;52.93;96441.78;5009301;28;19971;-51
2022/10/03 10:44:27;;;;;;;;;;;27.20;51.60;;;19.13;53.67;96446.91;5031899;28;19913;-50
2022/10/03 10:47:36;;;;;;;;;;;27.40;51.20;;;19.20;52.77;96443.81;5010260;28;20423;-48
2022/10/03 10:51:14;;;;;;;;;;;27.60;50.90;;;19.44;52.79;96443.66;5028910;28;20282;-51
2022/10/03 10:54:20;;;;;;;;;;;27.80;50.40;;;19.59;51.97;96442.56;5031213;28;20324;-54
2022/10/03 10:57:39;;;;;;;;;;;28.10;50.00;;;19.51;50.35;96446.75;5021452;28;20286;-53
2022/10/03 11:00:50;;;;;;;;;;;28.50;49.90;;;19.27;51.41;96435.31;5025698;28;19909;-52
2022/10/03 11:04:00;;;;;;;;;;;28.70;49.20;;;19.06;52.13;96443.81;5028609;28;20387;-53
2022/10/03 11:07:22;;;;;;;;;;;29.10;48.40;;;19.79;50.62;96434.03;5027503;28;19943;-52
2022/10/03 11:10:30;;;;;;;;;;;29.50;48.00;;;19.85;50.60;96435.53;5019148;28;19948;-50
2022/10/03 11:13:08;;;;;;;;;;;29.50;47.80;;;20.47;47.35;96428.75;5016342;28;19932;-53
2022/10/03 11:16:24;;;;;;;;;;;29.80;47.40;;;20.89;48.68;96432.06;5015004;28;19915;-48
2022/10/03 11:19:27;;;;;;;;;;;30.70;47.30;;;20.65;48.60;96424.28;5022500;28;20452;-52
2022/10/03 11:22:19;;;;;;;;;;;30.80;46.40;;;20.41;49.10;96422.66;5003078;28;19913;-49
2022/10/03 11:25:25;;;;;;;;;;;30.40;46.10;;;19.96;49.88;96427.19;5010957;28;19935;-48
2022/10/03 11:28:25;;;;;;;;;;;29.70;45.70;;;19.32;51.43;96413.63;5020174;28;19909;-51
2022/10/03 11:31:47;;;;;;;;;;;29.00;45.60;;;18.72;50.13;96419.81;5027486;28;19967;-48
2022/10/03 11:35:07;;;;;;;;;;;28.00;45.70;;;18.73;50.56;96424.16;5032869;28;19955;-48
2022/10/03 11:38:12;;;;;;;;;;;27.10;46.10;;;18.53;50.50;96427.16;4977931;28;19967;-51
2022/10/03 11:41:05;;;;;;;;;;;26.60;46.60;;;18.28;52.03;96431.84;5003503;28;20334;-54
2022/10/03 11:44:08;;;;;;;;;;;26.20;46.80;;;18.04;54.05;96423.84;5027979;28;19924;-52
2022/10/03 11:46:56;;;;;;;;;;;25.90;47.10;;;17.64;54.15;96430.53;4994207;28;19942;-51
2022/10/03 11:50:18;;;;;;;;;;;25.90;47.20;;;17.49;54.46;96426.16;5022699;28;19952;-51
2022/10/03 11:54:02;;;;;;;;;;;25.60;47.20;;;17.33;54.96;96420.97;5032998;28;19912;-48
2022/10/03 11:56:49;;;;;;;;;;;25.10;47.50;;;17.31;54.99;96417.75;4942271;28;19941;-53
2022/10/03 11:59:39;;;;;;;;;;;24.70;47.80;;;17.58;54.76;96422.53;4971543;28;19909;-51
2022/10/03 12:02:51;;;;;;;;;;;24.60;48.10;;;18.24;54.95;96420.06;4961233;28;20409;-52
2022/10/03 12:05:45;;;;;;;;;;;25.40;48.10;;;18.44;54.35;96413.53;4971295;28;19910;-50
2022/10/03 12:11:54;;;;;;;;;;;26.70;47.10;;;18.38;55.79;96412.81;4971035;28;19980;-53
2022/10/03 12:14:51;;;;;;;;;;;26.60;46.70;;;18.22;55.58;96414.94;4967765;28;19918;-53
2022/10/03 12:17:46;;;;;;;;;;;26.30;46.60;;;17.93;54.39;96417.00;4954719;28;19944;-50
2022/10/03 12:20:49;;;;;;;;;;;25.90;46.50;;;17.87;55.24;96423.56;4933319;28;19910;-53
2022/10/03 12:23:52;;;;;;;;;;;25.70;46.60;;;17.53;56.23;96428.00;4961159;28;19913;-51
2022/10/03 12:27:09;;;;;;;;;;;25.30;46.60;;;17.43;56.78;96424.63;4987903;28;19915;-50
2022/10/03 12:29:45;;;;;;;;;;;24.80;46.90;;;17.47;56.01;96423.75;5013843;28;19935;-52
2022/10/03 12:32:43;;;;;;;;;;;24.50;47.30;;;17.59;56.02;96423.34;5026936;28;19913;-51
2022/10/03 12:35:37;;;;;;;;;;;24.60;47.60;;;17.68;54.45;96416.22;5031545;28;19958;-52
2022/10/03 12:38:17;;;;;;;;;;;25.00;47.60;;;17.80;52.06;96413.16;5022682;28;19973;-52
2022/10/03 12:41:02;;;;;;;;;;;25.50;47.40;;;17.99;51.75;96413.94;5016955;28;19994;-52
2022/10/03 12:44:04;;;;;;;;;;;26.20;47.30;;;18.01;51.94;96411.75;5012467;28;20008;-48
2022/10/03 12:46:34;;;;;;;;;;;26.80;46.80;;;17.97;52.93;96404.53;5013619;28;19919;-51
2022/10/03 12:49:14;;;;;;;;;;;27.40;46.30;;;18.50;52.77;96399.66;5022500;28;19924;-51
2022/10/03 12:52:01;;;;;;;;;;;27.90;46.00;;;18.71;52.62;96405.53;5029818;28;20297;-51
2022/10/03 12:54:51;;;;;;;;;;;28.40;45.40;;;18.92;51.59;96405.19;4989078;28;19909;-48
2022/10/03 12:57:47;;;;;;;;;;;28.70;45.10;;;18.88;49.46;96391.50;5004779;28;19996;-48
2022/10/03 13:00:56;;;;;;;;;;;28.50;44.90;;;19.12;49.70;96395.94;5026948;28;19913;-53
2022/10/03 13:03:53;;;;;;;;;;;28.50;44.70;;;19.31;49.56;96388.53;5031049;28;20003;-49
2022/10/03 13:07:12;;;;;;;;;;;28.60;44.70;;;19.72;49.33;96386.91;5027076;28;26907;-48
2022/10/03 13:10:18;;;;;;;;;;;29.00;44.60;;;20.17;48.26;96385.06;5015844;28;19908;-49
2022/10/03 13:13:35;;;;;;;;;;;29.40;44.30;;;20.27;46.44;96373.22;5006856;28;19912;-49
2022/10/03 13:16:53;;;;;;;;;;;29.70;44.60;;;19.72;48.25;96385.00;5030888;28;19908;-50
2022/10/03 13:19:42;;;;;;;;;;;29.60;43.50;;;19.56;47.63;96387.19;5018971;28;20432;-50
2022/10/03 13:22:49;;;;;;;;;;;29.50;43.20;;;19.35;49.38;96377.91;5013753;28;19916;-48
2022/10/03 13:25:31;;;;;;;;;;;29.10;43.00;;;19.33;47.87;96375.50;5006809;28;19941;-53
2022/10/03 13:28:19;;;;;;;;;;;28.60;43.20;;;19.29;49.88;96371.81;5013103;28;19940;-47
2022/10/03 13:31:27;;;;;;;;;;;28.40;43.20;;;19.01;50.21;96371.00;5008238;28;19908;-52
2022/10/03 13:34:09;;;;;;;;;;;28.30;43.30;;;18.97;49.19;96380.00;5013214;28;19909;-53
2022/10/03 13:37:20;;;;;;;;;;;28.10;43.20;;;19.19;48.27;96372.03;5004220;28;19917;-53
2022/10/03 13:39:52;;;;;;;;;;;28.00;43.10;;;19.40;49.01;96378.63;5002840;28;19947;-48
2022/10/03 13:42:52;;;;;;;;;;;28.00;43.60;;;19.26;49.15;96377.00;4990021;28;19948;-48
2022/10/03 13:45:25;;;;;;;;;;;28.00;44.00;;;19.14;50.17;96372.09;5027074;28;19909;-52
2022/10/03 13:47:56;;;;;;;;;;;28.10;43.90;;;19.19;48.29;96372.81;4999328;28;20388;-54
2022/10/03 13:50:44;;;;;;;;;;;28.20;43.90;;;19.39;50.32;96370.81;5004884;28;20062;-52
2022/10/03 13:53:45;;;;;;;;;;;28.20;44.50;;;19.54;49.18;96367.78;5030305;28;19916;-50
2022/10/03 13:56:51;;;;;;;;;;;28.30;44.50;;;19.41;49.91;96365.91;5010070;28;19917;-52
2022/10/03 14:00:18;;;;;;;;;;;28.40;43.70;;;19.52;49.07;96361.88;5009748;28;20371;-52
2022/10/03 14:03:24;;;;;;;;;;;28.40;43.60;;;18.93;51.61;96356.31;5015621;28;20289;-48
2022/10/03 14:06:16;;;;;;;;;;;28.20;43.40;;;18.82;49.57;96357.59;5011011;28;19957;-49
2022/10/03 14:09:30;;;;;;;;;;;28.20;43.00;;;19.04;50.92;96361.50;5012552;28;20272;-50